sensor_id;sensor_type;location;lat;lon;timestamp;temperature;humidity
18335;DHT22;9293;49.524;10.964;2023-07-08T00:00:32;16.90;99.90
18335;DHT22;9293;49.524;10.964;2023-07-08T00:03:04;16.90;99.90
18335;DHT22;9293;49.524;10.964;2023-07-08T00:05:33;16.90;99.90
18335;DHT22;9293;49.524;10.964;2023-07-08T00:08:02;17.00;99.90
18335;DHT22;9293;49.524;10.964;2023-07-08T00:10:31;17.10;99.90
18335;DHT22;9293;49.524;10.964;2023-07-08T00:13:04;17.20;99.90
18335;DHT22;9293;49.524;10.964;2023-07-08T00:15:36;17.00;99.90
18335;DHT22;9293;49.524;10.964;2023-07-08T00:18:11;16.80;99.90
18335;DHT22;9293;49.524;10.964;2023-07-08T00:20:41;16.90;99.90
18335;DHT22;9293;49.524;10.964;2023-07-08T00:23:15;16.80;99.90
18335;DHT22;9293;49.524;10.964;2023-07-08T00:25:43;16.90;99.90
18335;DHT22;9293;49.524;10.964;2023-07-08T00:28:16;17.00;99.90
18335;DHT22;9293;49.524;10.964;2023-07-08T00:30:44;17.10;99.90
18335;DHT22;9293;49.524;10.964;2023-07-08T00:33:13;17.00;99.90
18335;DHT22;9293;49.524;10.964;2023-07-08T00:35:42;17.10;99.90
18335;DHT22;9293;49.524;10.964;2023-07-08T00:38:15;17.00;99.90
18335;DHT22;9293;49.524;10.964;2023-07-08T00:40:51;17.10;99.90
18335;DHT22;9293;49.524;10.964;2023-07-08T00:43:23;17.10;99.90
18335;DHT22;9293;49.524;10.964;2023-07-08T00:45:53;17.00;99.90
18335;DHT22;9293;49.524;10.964;2023-07-08T00:48:30;17.10;99.90
18335;DHT22;9293;49.524;10.964;2023-07-08T00:51:07;17.10;99.90
18335;DHT22;9293;49.524;10.964;2023-07-08T00:53:38;17.10;99.90
18335;DHT22;9293;49.524;10.964;2023-07-08T00:56:12;16.80;99.90
18335;DHT22;9293;49.524;10.964;2023-07-08T00:58:48;16.60;99.90
18335;DHT22;9293;49.524;10.964;2023-07-08T01:01:19;16.60;99.90
18335;DHT22;9293;49.524;10.964;2023-07-08T01:03:49;16.50;99.90
18335;DHT22;9293;49.524;10.964;2023-07-08T01:06:20;16.40;99.90
18335;DHT22;9293;49.524;10.964;2023-07-08T01:08:50;16.60;99.90
18335;DHT22;9293;49.524;10.964;2023-07-08T01:11:22;16.50;99.90
18335;DHT22;9293;49.524;10.964;2023-07-08T01:13:53;16.40;99.90
18335;DHT22;9293;49.524;10.964;2023-07-08T01:16:22;16.30;99.90
18335;DHT22;9293;49.524;10.964;2023-07-08T01:18:51;16.10;99.90
18335;DHT22;9293;49.524;10.964;2023-07-08T01:21:31;16.10;99.90
18335;DHT22;9293;49.524;10.964;2023-07-08T01:24:01;16.20;99.90
18335;DHT22;9293;49.524;10.964;2023-07-08T01:26:40;16.10;99.90
18335;DHT22;9293;49.524;10.964;2023-07-08T01:29:14;16.10;99.90
18335;DHT22;9293;49.524;10.964;2023-07-08T01:31:44;16.00;99.90
18335;DHT22;9293;49.524;10.964;2023-07-08T01:34:17;16.00;99.90
18335;DHT22;9293;49.524;10.964;2023-07-08T01:36:47;16.00;99.90
18335;DHT22;9293;49.524;10.964;2023-07-08T01:39:17;16.00;99.90
18335;DHT22;9293;49.524;10.964;2023-07-08T01:41:48;16.00;99.90
18335;DHT22;9293;49.524;10.964;2023-07-08T01:44:38;16.00;99.90
18335;DHT22;9293;49.524;10.964;2023-07-08T01:47:13;15.90;99.90
18335;DHT22;9293;49.524;10.964;2023-07-08T01:49:44;15.80;99.90
18335;DHT22;9293;49.524;10.964;2023-07-08T01:52:14;15.60;99.90
18335;DHT22;9293;49.524;10.964;2023-07-08T01:54:54;15.50;99.90
18335;DHT22;9293;49.524;10.964;2023-07-08T01:57:23;15.50;99.90
18335;DHT22;9293;49.524;10.964;2023-07-08T01:59:51;15.50;99.90
18335;DHT22;9293;49.524;10.964;2023-07-08T02:02:19;15.40;99.90
18335;DHT22;9293;49.524;10.964;2023-07-08T02:04:48;15.40;99.90
18335;DHT22;9293;49.524;10.964;2023-07-08T02:07:20;15.30;99.90
18335;DHT22;9293;49.524;10.964;2023-07-08T02:09:49;15.30;99.90
18335;DHT22;9293;49.524;10.964;2023-07-08T02:12:18;15.40;99.90
18335;DHT22;9293;49.524;10.964;2023-07-08T02:14:47;15.50;99.90
18335;DHT22;9293;49.524;10.964;2023-07-08T02:17:15;15.50;99.90
18335;DHT22;9293;49.524;10.964;2023-07-08T02:19:45;15.60;99.90
18335;DHT22;9293;49.524;10.964;2023-07-08T02:22:15;15.80;99.90
18335;DHT22;9293;49.524;10.964;2023-07-08T02:24:44;15.90;99.90
18335;DHT22;9293;49.524;10.964;2023-07-08T02:27:15;15.90;99.90
18335;DHT22;9293;49.524;10.964;2023-07-08T02:29:44;16.00;99.90
18335;DHT22;9293;49.524;10.964;2023-07-08T02:32:15;15.90;99.90
18335;DHT22;9293;49.524;10.964;2023-07-08T02:34:46;15.80;99.90
18335;DHT22;9293;49.524;10.964;2023-07-08T02:37:15;15.80;99.90
18335;DHT22;9293;49.524;10.964;2023-07-08T02:39:43;15.70;99.90
18335;DHT22;9293;49.524;10.964;2023-07-08T02:42:12;15.70;99.90
18335;DHT22;9293;49.524;10.964;2023-07-08T02:44:42;15.80;99.90
18335;DHT22;9293;49.524;10.964;2023-07-08T02:47:10;15.70;99.90
18335;DHT22;9293;49.524;10.964;2023-07-08T02:49:39;15.60;99.90
18335;DHT22;9293;49.524;10.964;2023-07-08T02:52:15;15.50;99.90
18335;DHT22;9293;49.524;10.964;2023-07-08T02:54:51;15.50;99.90
18335;DHT22;9293;49.524;10.964;2023-07-08T02:57:22;15.40;99.90
18335;DHT22;9293;49.524;10.964;2023-07-08T02:59:50;15.20;99.90
18335;DHT22;9293;49.524;10.964;2023-07-08T03:02:20;15.10;99.90
18335;DHT22;9293;49.524;10.964;2023-07-08T03:04:49;15.10;99.90
18335;DHT22;9293;49.524;10.964;2023-07-08T03:07:18;15.10;99.90
18335;DHT22;9293;49.524;10.964;2023-07-08T03:09:47;15.20;99.90
18335;DHT22;9293;49.524;10.964;2023-07-08T03:12:22;15.10;99.90
18335;DHT22;9293;49.524;10.964;2023-07-08T03:14:51;15.20;99.90
18335;DHT22;9293;49.524;10.964;2023-07-08T03:17:20;15.20;99.90
18335;DHT22;9293;49.524;10.964;2023-07-08T03:19:49;15.30;99.90
18335;DHT22;9293;49.524;10.964;2023-07-08T03:22:19;15.00;99.90
18335;DHT22;9293;49.524;10.964;2023-07-08T03:24:51;14.80;99.90
18335;DHT22;9293;49.524;10.964;2023-07-08T03:27:21;14.80;99.90
18335;DHT22;9293;49.524;10.964;2023-07-08T03:29:51;14.80;99.90
18335;DHT22;9293;49.524;10.964;2023-07-08T03:32:23;14.70;99.90
18335;DHT22;9293;49.524;10.964;2023-07-08T03:34:58;14.80;99.90
18335;DHT22;9293;49.524;10.964;2023-07-08T03:37:27;14.80;99.90
18335;DHT22;9293;49.524;10.964;2023-07-08T03:39:57;14.90;99.90
18335;DHT22;9293;49.524;10.964;2023-07-08T03:42:53;14.80;99.90
18335;DHT22;9293;49.524;10.964;2023-07-08T03:45:22;15.00;99.90
18335;DHT22;9293;49.524;10.964;2023-07-08T03:47:53;15.00;99.90
18335;DHT22;9293;49.524;10.964;2023-07-08T03:50:22;14.90;99.90
18335;DHT22;9293;49.524;10.964;2023-07-08T03:52:52;14.80;99.90
18335;DHT22;9293;49.524;10.964;2023-07-08T03:55:27;14.90;99.90
18335;DHT22;9293;49.524;10.964;2023-07-08T03:57:58;15.00;99.90
18335;DHT22;9293;49.524;10.964;2023-07-08T04:00:38;15.10;99.90
18335;DHT22;9293;49.524;10.964;2023-07-08T04:03:11;15.10;99.90
18335;DHT22;9293;49.524;10.964;2023-07-08T04:06:27;15.20;99.90
18335;DHT22;9293;49.524;10.964;2023-07-08T04:08:58;15.20;99.90
18335;DHT22;9293;49.524;10.964;2023-07-08T04:11:27;15.20;99.90
18335;DHT22;9293;49.524;10.964;2023-07-08T04:14:00;15.10;99.90
18335;DHT22;9293;49.524;10.964;2023-07-08T04:16:29;15.10;99.90
18335;DHT22;9293;49.524;10.964;2023-07-08T04:19:00;15.20;99.90
18335;DHT22;9293;49.524;10.964;2023-07-08T04:21:34;15.30;99.90
18335;DHT22;9293;49.524;10.964;2023-07-08T04:24:13;15.40;99.90
18335;DHT22;9293;49.524;10.964;2023-07-08T04:26:42;15.50;99.90
18335;DHT22;9293;49.524;10.964;2023-07-08T04:29:17;15.60;99.90
18335;DHT22;9293;49.524;10.964;2023-07-08T04:31:47;15.60;99.90
18335;DHT22;9293;49.524;10.964;2023-07-08T04:34:16;15.60;99.90
18335;DHT22;9293;49.524;10.964;2023-07-08T04:36:45;15.70;99.90
18335;DHT22;9293;49.524;10.964;2023-07-08T04:39:14;15.80;99.90
18335;DHT22;9293;49.524;10.964;2023-07-08T04:41:43;15.80;99.90
18335;DHT22;9293;49.524;10.964;2023-07-08T04:44:12;15.90;99.90
18335;DHT22;9293;49.524;10.964;2023-07-08T04:46:48;16.00;99.90
18335;DHT22;9293;49.524;10.964;2023-07-08T04:49:21;16.10;99.90
18335;DHT22;9293;49.524;10.964;2023-07-08T04:51:51;16.20;99.90
18335;DHT22;9293;49.524;10.964;2023-07-08T04:54:22;16.30;99.90
18335;DHT22;9293;49.524;10.964;2023-07-08T04:56:51;16.40;99.90
18335;DHT22;9293;49.524;10.964;2023-07-08T04:59:27;16.60;99.90
18335;DHT22;9293;49.524;10.964;2023-07-08T05:01:56;16.70;99.90
18335;DHT22;9293;49.524;10.964;2023-07-08T05:04:28;16.80;99.90
18335;DHT22;9293;49.524;10.964;2023-07-08T05:07:09;16.90;99.90
18335;DHT22;9293;49.524;10.964;2023-07-08T05:09:38;17.00;99.90
18335;DHT22;9293;49.524;10.964;2023-07-08T05:12:08;17.00;99.90
18335;DHT22;9293;49.524;10.964;2023-07-08T05:14:45;17.10;99.90
18335;DHT22;9293;49.524;10.964;2023-07-08T05:17:14;17.20;99.90
18335;DHT22;9293;49.524;10.964;2023-07-08T05:19:44;17.30;99.90
18335;DHT22;9293;49.524;10.964;2023-07-08T05:22:14;17.40;99.90
18335;DHT22;9293;49.524;10.964;2023-07-08T05:24:49;17.50;99.90
18335;DHT22;9293;49.524;10.964;2023-07-08T05:27:34;17.60;99.90
18335;DHT22;9293;49.524;10.964;2023-07-08T05:30:11;17.80;99.90
18335;DHT22;9293;49.524;10.964;2023-07-08T05:32:46;17.90;99.90
18335;DHT22;9293;49.524;10.964;2023-07-08T05:35:17;18.10;99.90
18335;DHT22;9293;49.524;10.964;2023-07-08T05:37:49;18.20;99.90
18335;DHT22;9293;49.524;10.964;2023-07-08T05:40:19;18.30;99.90
18335;DHT22;9293;49.524;10.964;2023-07-08T05:42:47;18.40;99.90
18335;DHT22;9293;49.524;10.964;2023-07-08T05:45:16;18.50;99.90
18335;DHT22;9293;49.524;10.964;2023-07-08T05:47:47;18.60;99.90
18335;DHT22;9293;49.524;10.964;2023-07-08T05:50:21;18.80;99.90
18335;DHT22;9293;49.524;10.964;2023-07-08T05:52:54;18.90;99.90
18335;DHT22;9293;49.524;10.964;2023-07-08T05:55:23;19.10;99.90
18335;DHT22;9293;49.524;10.964;2023-07-08T05:57:52;19.30;99.90
18335;DHT22;9293;49.524;10.964;2023-07-08T06:00:22;19.40;99.90
18335;DHT22;9293;49.524;10.964;2023-07-08T06:02:55;19.60;99.90
18335;DHT22;9293;49.524;10.964;2023-07-08T06:05:24;19.70;99.90
18335;DHT22;9293;49.524;10.964;2023-07-08T06:07:52;19.80;99.90
18335;DHT22;9293;49.524;10.964;2023-07-08T06:10:21;20.10;99.90
18335;DHT22;9293;49.524;10.964;2023-07-08T06:12:49;20.20;99.90
18335;DHT22;9293;49.524;10.964;2023-07-08T06:15:17;20.40;99.90
18335;DHT22;9293;49.524;10.964;2023-07-08T06:17:46;20.60;99.90
18335;DHT22;9293;49.524;10.964;2023-07-08T06:20:14;20.80;99.90
18335;DHT22;9293;49.524;10.964;2023-07-08T06:22:42;21.00;99.90
18335;DHT22;9293;49.524;10.964;2023-07-08T06:25:14;21.10;99.90
18335;DHT22;9293;49.524;10.964;2023-07-08T06:27:42;21.30;99.90
18335;DHT22;9293;49.524;10.964;2023-07-08T06:30:10;21.50;99.90
18335;DHT22;9293;49.524;10.964;2023-07-08T06:32:38;21.70;99.90
18335;DHT22;9293;49.524;10.964;2023-07-08T06:35:07;21.90;99.90
18335;DHT22;9293;49.524;10.964;2023-07-08T06:37:35;22.10;99.90
18335;DHT22;9293;49.524;10.964;2023-07-08T06:40:03;22.30;99.90
18335;DHT22;9293;49.524;10.964;2023-07-08T06:42:34;22.50;99.90
18335;DHT22;9293;49.524;10.964;2023-07-08T06:45:22;22.80;99.90
18335;DHT22;9293;49.524;10.964;2023-07-08T06:47:50;23.20;99.90
18335;DHT22;9293;49.524;10.964;2023-07-08T06:50:18;23.50;99.90
18335;DHT22;9293;49.524;10.964;2023-07-08T06:52:46;23.80;99.90
18335;DHT22;9293;49.524;10.964;2023-07-08T06:55:15;24.00;99.90
18335;DHT22;9293;49.524;10.964;2023-07-08T06:57:43;24.30;99.90
18335;DHT22;9293;49.524;10.964;2023-07-08T07:00:11;24.40;99.90
18335;DHT22;9293;49.524;10.964;2023-07-08T07:02:39;24.70;99.90
18335;DHT22;9293;49.524;10.964;2023-07-08T07:05:08;24.90;99.90
18335;DHT22;9293;49.524;10.964;2023-07-08T07:07:36;25.20;99.90
18335;DHT22;9293;49.524;10.964;2023-07-08T07:10:04;25.40;99.90
18335;DHT22;9293;49.524;10.964;2023-07-08T07:12:33;25.50;99.90
18335;DHT22;9293;49.524;10.964;2023-07-08T07:15:02;25.70;99.90
18335;DHT22;9293;49.524;10.964;2023-07-08T07:17:31;25.90;99.90
18335;DHT22;9293;49.524;10.964;2023-07-08T07:19:59;26.20;99.90
18335;DHT22;9293;49.524;10.964;2023-07-08T07:22:27;26.40;99.90
18335;DHT22;9293;49.524;10.964;2023-07-08T07:24:56;26.50;99.90
18335;DHT22;9293;49.524;10.964;2023-07-08T07:27:24;26.80;99.90
18335;DHT22;9293;49.524;10.964;2023-07-08T07:29:52;26.90;99.90
18335;DHT22;9293;49.524;10.964;2023-07-08T07:32:22;27.20;99.90
18335;DHT22;9293;49.524;10.964;2023-07-08T07:34:51;27.60;99.90
18335;DHT22;9293;49.524;10.964;2023-07-08T07:37:20;27.90;99.90
18335;DHT22;9293;49.524;10.964;2023-07-08T07:39:48;28.00;99.90
18335;DHT22;9293;49.524;10.964;2023-07-08T07:42:17;28.40;99.90
18335;DHT22;9293;49.524;10.964;2023-07-08T07:44:45;28.60;99.90
18335;DHT22;9293;49.524;10.964;2023-07-08T07:47:14;28.80;99.90
18335;DHT22;9293;49.524;10.964;2023-07-08T07:49:42;29.00;99.90
18335;DHT22;9293;49.524;10.964;2023-07-08T07:52:10;29.00;99.90
18335;DHT22;9293;49.524;10.964;2023-07-08T07:54:38;29.10;99.20
18335;DHT22;9293;49.524;10.964;2023-07-08T07:57:06;28.90;98.60
18335;DHT22;9293;49.524;10.964;2023-07-08T07:59:35;28.90;99.90
18335;DHT22;9293;49.524;10.964;2023-07-08T08:02:03;29.10;99.30
18335;DHT22;9293;49.524;10.964;2023-07-08T08:04:31;29.20;98.60
18335;DHT22;9293;49.524;10.964;2023-07-08T08:06:59;29.30;99.30
18335;DHT22;9293;49.524;10.964;2023-07-08T08:09:29;29.40;98.40
18335;DHT22;9293;49.524;10.964;2023-07-08T08:12:01;29.50;97.80
18335;DHT22;9293;49.524;10.964;2023-07-08T08:14:32;29.70;98.40
18335;DHT22;9293;49.524;10.964;2023-07-08T08:17:00;29.90;97.30
18335;DHT22;9293;49.524;10.964;2023-07-08T08:19:28;29.90;95.80
18335;DHT22;9293;49.524;10.964;2023-07-08T08:21:56;29.80;96.30
18335;DHT22;9293;49.524;10.964;2023-07-08T08:24:25;29.90;96.40
18335;DHT22;9293;49.524;10.964;2023-07-08T08:26:54;30.00;96.30
18335;DHT22;9293;49.524;10.964;2023-07-08T08:29:22;30.20;95.90
18335;DHT22;9293;49.524;10.964;2023-07-08T08:31:50;30.30;95.70
18335;DHT22;9293;49.524;10.964;2023-07-08T08:34:18;30.60;95.60
18335;DHT22;9293;49.524;10.964;2023-07-08T08:36:47;30.90;95.00
18335;DHT22;9293;49.524;10.964;2023-07-08T08:39:15;30.90;95.40
18335;DHT22;9293;49.524;10.964;2023-07-08T08:41:43;31.00;95.50
18335;DHT22;9293;49.524;10.964;2023-07-08T08:44:15;31.00;94.40
18335;DHT22;9293;49.524;10.964;2023-07-08T08:46:55;31.00;93.60
18335;DHT22;9293;49.524;10.964;2023-07-08T08:49:42;31.10;94.20
18335;DHT22;9293;49.524;10.964;2023-07-08T08:52:13;31.40;93.50
18335;DHT22;9293;49.524;10.964;2023-07-08T08:54:41;31.30;93.80
18335;DHT22;9293;49.524;10.964;2023-07-08T09:04:48;31.60;89.00
18335;DHT22;9293;49.524;10.964;2023-07-08T09:07:16;31.50;87.80
18335;DHT22;9293;49.524;10.964;2023-07-08T09:09:47;31.40;90.00
18335;DHT22;9293;49.524;10.964;2023-07-08T09:12:19;31.40;87.50
18335;DHT22;9293;49.524;10.964;2023-07-08T09:14:49;31.60;88.30
18335;DHT22;9293;49.524;10.964;2023-07-08T09:17:28;32.00;83.70
18335;DHT22;9293;49.524;10.964;2023-07-08T09:23:15;32.00;82.50
18335;DHT22;9293;49.524;10.964;2023-07-08T09:25:49;31.80;81.10
18335;DHT22;9293;49.524;10.964;2023-07-08T09:28:19;32.10;78.30
18335;DHT22;9293;49.524;10.964;2023-07-08T09:30:48;32.40;78.40
18335;DHT22;9293;49.524;10.964;2023-07-08T09:33:16;32.70;76.80
18335;DHT22;9293;49.524;10.964;2023-07-08T09:35:45;32.50;75.60
18335;DHT22;9293;49.524;10.964;2023-07-08T09:38:15;32.40;73.60
18335;DHT22;9293;49.524;10.964;2023-07-08T09:40:46;32.30;73.90
18335;DHT22;9293;49.524;10.964;2023-07-08T09:45:44;32.20;74.40
18335;DHT22;9293;49.524;10.964;2023-07-08T09:48:20;32.30;74.40
18335;DHT22;9293;49.524;10.964;2023-07-08T09:50:51;32.40;72.70
18335;DHT22;9293;49.524;10.964;2023-07-08T09:53:19;32.50;69.90
18335;DHT22;9293;49.524;10.964;2023-07-08T09:55:49;32.60;68.70
18335;DHT22;9293;49.524;10.964;2023-07-08T09:58:19;32.60;69.80
18335;DHT22;9293;49.524;10.964;2023-07-08T10:00:57;32.60;70.10
18335;DHT22;9293;49.524;10.964;2023-07-08T10:03:27;32.90;69.30
18335;DHT22;9293;49.524;10.964;2023-07-08T10:06:05;33.00;70.30
18335;DHT22;9293;49.524;10.964;2023-07-08T10:08:43;33.10;68.90
18335;DHT22;9293;49.524;10.964;2023-07-08T10:14:37;33.00;67.40
18335;DHT22;9293;49.524;10.964;2023-07-08T10:17:09;33.00;67.80
18335;DHT22;9293;49.524;10.964;2023-07-08T10:19:41;33.10;66.80
18335;DHT22;9293;49.524;10.964;2023-07-08T10:22:21;33.40;64.10
18335;DHT22;9293;49.524;10.964;2023-07-08T10:27:50;33.70;62.50
18335;DHT22;9293;49.524;10.964;2023-07-08T10:30:22;33.80;62.50
18335;DHT22;9293;49.524;10.964;2023-07-08T10:38:34;33.80;60.90
18335;DHT22;9293;49.524;10.964;2023-07-08T10:41:09;33.90;60.00
18335;DHT22;9293;49.524;10.964;2023-07-08T10:49:25;34.00;61.80
18335;DHT22;9293;49.524;10.964;2023-07-08T10:59:39;34.10;60.60
18335;DHT22;9293;49.524;10.964;2023-07-08T11:02:26;34.00;58.90
18335;DHT22;9293;49.524;10.964;2023-07-08T11:05:04;34.00;59.20
18335;DHT22;9293;49.524;10.964;2023-07-08T11:10:32;34.10;59.80
18335;DHT22;9293;49.524;10.964;2023-07-08T11:13:01;34.30;61.40
18335;DHT22;9293;49.524;10.964;2023-07-08T11:15:44;34.10;59.40
18335;DHT22;9293;49.524;10.964;2023-07-08T11:18:24;34.00;59.90
18335;DHT22;9293;49.524;10.964;2023-07-08T11:25:50;34.00;60.30
18335;DHT22;9293;49.524;10.964;2023-07-08T11:28:21;34.30;60.70
18335;DHT22;9293;49.524;10.964;2023-07-08T11:30:51;34.40;60.60
18335;DHT22;9293;49.524;10.964;2023-07-08T11:33:21;34.60;58.50
18335;DHT22;9293;49.524;10.964;2023-07-08T11:35:50;34.60;58.20
18335;DHT22;9293;49.524;10.964;2023-07-08T11:38:19;34.60;59.00
18335;DHT22;9293;49.524;10.964;2023-07-08T11:41:04;34.70;57.90
18335;DHT22;9293;49.524;10.964;2023-07-08T11:43:53;34.80;59.20
18335;DHT22;9293;49.524;10.964;2023-07-08T11:46:28;34.90;59.30
18335;DHT22;9293;49.524;10.964;2023-07-08T11:49:13;34.70;57.30
18335;DHT22;9293;49.524;10.964;2023-07-08T11:51:43;34.70;58.10
18335;DHT22;9293;49.524;10.964;2023-07-08T11:54:28;34.90;58.00
18335;DHT22;9293;49.524;10.964;2023-07-08T11:57:00;34.90;59.50
18335;DHT22;9293;49.524;10.964;2023-07-08T11:59:30;35.10;58.10
18335;DHT22;9293;49.524;10.964;2023-07-08T12:02:02;35.00;59.80
18335;DHT22;9293;49.524;10.964;2023-07-08T12:07:06;35.20;59.70
18335;DHT22;9293;49.524;10.964;2023-07-08T12:09:36;35.40;58.40
18335;DHT22;9293;49.524;10.964;2023-07-08T12:12:14;35.20;59.10
18335;DHT22;9293;49.524;10.964;2023-07-08T12:14:43;35.10;58.20
18335;DHT22;9293;49.524;10.964;2023-07-08T12:17:12;35.10;60.20
18335;DHT22;9293;49.524;10.964;2023-07-08T12:19:42;35.20;58.30
18335;DHT22;9293;49.524;10.964;2023-07-08T12:22:11;35.00;59.50
18335;DHT22;9293;49.524;10.964;2023-07-08T12:24:40;35.10;59.80
18335;DHT22;9293;49.524;10.964;2023-07-08T12:27:09;35.20;58.30
18335;DHT22;9293;49.524;10.964;2023-07-08T12:29:40;35.40;58.80
18335;DHT22;9293;49.524;10.964;2023-07-08T12:32:10;35.10;57.90
18335;DHT22;9293;49.524;10.964;2023-07-08T12:34:39;34.90;57.90
18335;DHT22;9293;49.524;10.964;2023-07-08T12:37:10;34.90;58.60
18335;DHT22;9293;49.524;10.964;2023-07-08T12:39:39;34.90;57.40
18335;DHT22;9293;49.524;10.964;2023-07-08T12:42:08;34.80;57.60
18335;DHT22;9293;49.524;10.964;2023-07-08T12:44:38;34.80;58.80
18335;DHT22;9293;49.524;10.964;2023-07-08T12:47:08;34.80;57.60
18335;DHT22;9293;49.524;10.964;2023-07-08T12:49:37;34.70;57.50
18335;DHT22;9293;49.524;10.964;2023-07-08T12:52:05;34.80;58.40
18335;DHT22;9293;49.524;10.964;2023-07-08T12:54:34;34.90;58.20
18335;DHT22;9293;49.524;10.964;2023-07-08T12:57:02;34.80;57.50
18335;DHT22;9293;49.524;10.964;2023-07-08T12:59:30;34.80;58.40
18335;DHT22;9293;49.524;10.964;2023-07-08T13:01:59;34.90;58.60
18335;DHT22;9293;49.524;10.964;2023-07-08T13:04:27;34.90;58.10
18335;DHT22;9293;49.524;10.964;2023-07-08T13:06:56;35.00;58.70
18335;DHT22;9293;49.524;10.964;2023-07-08T13:09:29;35.10;56.10
18335;DHT22;9293;49.524;10.964;2023-07-08T13:12:00;34.90;56.10
18335;DHT22;9293;49.524;10.964;2023-07-08T13:14:31;34.90;58.40
18335;DHT22;9293;49.524;10.964;2023-07-08T13:17:02;35.00;59.90
18335;DHT22;9293;49.524;10.964;2023-07-08T13:19:35;35.00;57.80
18335;DHT22;9293;49.524;10.964;2023-07-08T13:22:03;34.90;57.40
18335;DHT22;9293;49.524;10.964;2023-07-08T13:24:32;34.70;58.90
18335;DHT22;9293;49.524;10.964;2023-07-08T13:27:03;34.50;58.80
18335;DHT22;9293;49.524;10.964;2023-07-08T13:29:34;34.50;58.50
18335;DHT22;9293;49.524;10.964;2023-07-08T13:32:04;34.40;57.70
18335;DHT22;9293;49.524;10.964;2023-07-08T13:34:33;34.40;58.40
18335;DHT22;9293;49.524;10.964;2023-07-08T13:37:01;34.50;57.30
18335;DHT22;9293;49.524;10.964;2023-07-08T13:39:33;34.60;58.00
18335;DHT22;9293;49.524;10.964;2023-07-08T13:42:02;34.70;58.70
18335;DHT22;9293;49.524;10.964;2023-07-08T13:44:31;34.90;58.30
18335;DHT22;9293;49.524;10.964;2023-07-08T13:46:59;34.90;57.30
18335;DHT22;9293;49.524;10.964;2023-07-08T13:49:29;35.00;57.50
18335;DHT22;9293;49.524;10.964;2023-07-08T13:54:47;35.10;56.90
18335;DHT22;9293;49.524;10.964;2023-07-08T13:57:16;35.20;57.00
18335;DHT22;9293;49.524;10.964;2023-07-08T13:59:45;35.20;58.40
18335;DHT22;9293;49.524;10.964;2023-07-08T14:02:18;35.10;57.70
18335;DHT22;9293;49.524;10.964;2023-07-08T14:04:48;35.00;57.10
18335;DHT22;9293;49.524;10.964;2023-07-08T14:07:20;34.80;56.90
18335;DHT22;9293;49.524;10.964;2023-07-08T14:09:48;34.70;57.90
18335;DHT22;9293;49.524;10.964;2023-07-08T14:12:16;34.70;56.30
18335;DHT22;9293;49.524;10.964;2023-07-08T14:14:46;34.80;56.80
18335;DHT22;9293;49.524;10.964;2023-07-08T14:17:18;34.80;57.20
18335;DHT22;9293;49.524;10.964;2023-07-08T14:19:47;34.70;57.60
18335;DHT22;9293;49.524;10.964;2023-07-08T14:22:25;34.60;57.70
18335;DHT22;9293;49.524;10.964;2023-07-08T14:24:54;34.80;58.40
18335;DHT22;9293;49.524;10.964;2023-07-08T14:27:22;34.90;58.40
18335;DHT22;9293;49.524;10.964;2023-07-08T14:29:51;34.90;57.90
18335;DHT22;9293;49.524;10.964;2023-07-08T14:32:23;34.80;59.00
18335;DHT22;9293;49.524;10.964;2023-07-08T14:34:55;34.80;57.60
18335;DHT22;9293;49.524;10.964;2023-07-08T14:37:23;34.80;58.70
18335;DHT22;9293;49.524;10.964;2023-07-08T14:39:52;34.90;57.20
18335;DHT22;9293;49.524;10.964;2023-07-08T14:42:20;34.90;57.90
18335;DHT22;9293;49.524;10.964;2023-07-08T14:44:48;34.90;56.70
18335;DHT22;9293;49.524;10.964;2023-07-08T14:47:18;34.90;56.80
18335;DHT22;9293;49.524;10.964;2023-07-08T14:49:46;35.10;56.20
18335;DHT22;9293;49.524;10.964;2023-07-08T14:52:14;35.00;57.10
18335;DHT22;9293;49.524;10.964;2023-07-08T14:54:43;35.00;56.90
18335;DHT22;9293;49.524;10.964;2023-07-08T14:57:11;34.90;57.80
18335;DHT22;9293;49.524;10.964;2023-07-08T14:59:43;35.00;57.80
18335;DHT22;9293;49.524;10.964;2023-07-08T15:02:15;35.10;56.60
18335;DHT22;9293;49.524;10.964;2023-07-08T15:04:44;35.30;57.20
18335;DHT22;9293;49.524;10.964;2023-07-08T15:07:15;35.20;55.30
18335;DHT22;9293;49.524;10.964;2023-07-08T15:09:47;34.70;55.50
18335;DHT22;9293;49.524;10.964;2023-07-08T15:12:16;34.40;56.60
18335;DHT22;9293;49.524;10.964;2023-07-08T15:14:44;34.50;57.30
18335;DHT22;9293;49.524;10.964;2023-07-08T15:17:14;34.50;56.00
18335;DHT22;9293;49.524;10.964;2023-07-08T15:19:44;34.60;56.80
18335;DHT22;9293;49.524;10.964;2023-07-08T15:22:12;34.60;55.90
18335;DHT22;9293;49.524;10.964;2023-07-08T15:24:40;34.60;56.60
18335;DHT22;9293;49.524;10.964;2023-07-08T15:27:09;34.90;56.00
18335;DHT22;9293;49.524;10.964;2023-07-08T15:29:38;35.10;56.40
18335;DHT22;9293;49.524;10.964;2023-07-08T15:32:09;35.00;55.60
18335;DHT22;9293;49.524;10.964;2023-07-08T15:34:59;35.00;56.00
18335;DHT22;9293;49.524;10.964;2023-07-08T15:37:27;35.10;55.20
18335;DHT22;9293;49.524;10.964;2023-07-08T15:39:55;35.00;55.40
18335;DHT22;9293;49.524;10.964;2023-07-08T15:42:23;35.00;57.70
18335;DHT22;9293;49.524;10.964;2023-07-08T15:44:51;35.20;56.50
18335;DHT22;9293;49.524;10.964;2023-07-08T15:47:22;35.20;57.00
18335;DHT22;9293;49.524;10.964;2023-07-08T15:49:50;35.30;57.00
18335;DHT22;9293;49.524;10.964;2023-07-08T15:52:19;35.20;55.80
18335;DHT22;9293;49.524;10.964;2023-07-08T15:54:47;35.30;55.20
18335;DHT22;9293;49.524;10.964;2023-07-08T15:57:15;35.20;56.50
18335;DHT22;9293;49.524;10.964;2023-07-08T15:59:43;35.30;57.20
18335;DHT22;9293;49.524;10.964;2023-07-08T16:02:21;35.30;56.30
18335;DHT22;9293;49.524;10.964;2023-07-08T16:04:53;35.10;56.10
18335;DHT22;9293;49.524;10.964;2023-07-08T16:07:24;35.00;56.50
18335;DHT22;9293;49.524;10.964;2023-07-08T16:09:52;34.80;56.50
18335;DHT22;9293;49.524;10.964;2023-07-08T16:12:21;34.50;58.10
18335;DHT22;9293;49.524;10.964;2023-07-08T16:14:49;34.40;57.60
18335;DHT22;9293;49.524;10.964;2023-07-08T16:17:18;34.20;58.80
18335;DHT22;9293;49.524;10.964;2023-07-08T16:19:46;34.10;58.80
18335;DHT22;9293;49.524;10.964;2023-07-08T16:22:14;34.10;59.10
18335;DHT22;9293;49.524;10.964;2023-07-08T16:24:42;34.10;57.60
18335;DHT22;9293;49.524;10.964;2023-07-08T16:27:10;34.10;58.10
18335;DHT22;9293;49.524;10.964;2023-07-08T16:29:40;34.00;57.50
18335;DHT22;9293;49.524;10.964;2023-07-08T16:32:10;33.90;58.30
18335;DHT22;9293;49.524;10.964;2023-07-08T16:34:39;33.80;58.30
18335;DHT22;9293;49.524;10.964;2023-07-08T16:37:07;33.60;58.20
18335;DHT22;9293;49.524;10.964;2023-07-08T16:39:35;33.50;58.90
18335;DHT22;9293;49.524;10.964;2023-07-08T16:42:03;33.50;59.40
18335;DHT22;9293;49.524;10.964;2023-07-08T16:44:32;33.30;58.20